Time;durP1;ratioP1;P1;durP2;ratioP2;P2;SDS_P1;SDS_P2;PMS_P1;PMS_P2;Temp;Humidity;BMP_temperature;BMP_pressure;BME280_temperature;BME280_humidity;BME280_pressure;Samples;Min_cycle;Max_cycle;Signal;HPM_P1;HPM_P2
2021/03/06 00:00:48;;;;;;;2.72;2.17;;;;;;;1.90;67.29;97432.91;1721902;83;21221;-75
2021/03/06 00:03:17;;;;;;;3.75;2.55;;;;;;;1.84;67.17;97427.03;1734702;83;21178;-75
2021/03/06 00:05:45;;;;;;;2.30;1.67;;;;;;;1.80;66.93;97434.58;1729956;82;21148;-74
2021/03/06 00:08:12;;;;;;;3.47;1.80;;;;;;;1.77;66.90;97448.98;1770662;81;21728;-74
2021/03/06 00:10:40;;;;;;;2.35;1.50;;;;;;;1.70;67.06;97449.67;1724329;82;21285;-73
2021/03/06 00:13:07;;;;;;;3.10;1.82;;;;;;;1.68;66.97;97446.75;1732725;83;21186;-74
2021/03/06 00:15:34;;;;;;;2.62;1.60;;;;;;;1.65;66.74;97451.62;1718341;83;21623;-74
2021/03/06 00:18:03;;;;;;;3.27;1.92;;;;;;;1.63;66.76;97453.86;1711951;83;21222;-74
2021/03/06 00:20:31;;;;;;;3.33;2.15;;;;;;;1.59;66.56;97456.20;1711632;84;21318;-75
2021/03/06 00:22:59;;;;;;;2.98;1.92;;;;;;;1.21;66.41;97403.04;1699579;82;21188;-74
2021/03/06 00:25:27;;;;;;;3.22;1.67;;;;;;;1.56;66.34;97460.59;1739091;82;21169;-74
2021/03/06 00:27:56;;;;;;;3.10;1.85;;;;;;;1.52;66.09;97455.14;1697635;83;21153;-73
2021/03/06 00:30:24;;;;;;;2.87;2.15;;;;;;;1.53;66.28;97450.31;1681319;83;21117;-74
2021/03/06 00:32:53;;;;;;;3.52;1.70;;;;;;;1.51;65.89;97457.78;1711560;83;21219;-73
2021/03/06 00:35:20;;;;;;;3.08;1.95;;;;;;;1.48;65.98;97459.21;1708307;83;21177;-74
2021/03/06 00:37:48;;;;;;;3.83;2.00;;;;;;;1.44;65.77;97453.26;1740624;82;21696;-73
2021/03/06 00:40:17;;;;;;;3.30;2.00;;;;;;;1.31;65.81;97445.08;1724364;82;21148;-74
2021/03/06 00:42:45;;;;;;;4.03;2.40;;;;;;;1.31;65.93;97442.95;1741034;82;21172;-74
2021/03/06 00:45:12;;;;;;;2.42;1.80;;;;;;;1.30;65.77;97443.85;1718378;82;21148;-74
2021/03/06 00:47:40;;;;;;;3.15;1.70;;;;;;;1.27;65.79;97453.05;1714756;82;21092;-74
2021/03/06 00:50:16;;;;;;;2.70;1.55;;;;;;;1.27;65.84;97450.02;1714141;82;21124;-75
2021/03/06 00:52:44;;;;;;;4.03;1.62;;;;;;;1.29;65.89;97444.32;1713771;84;21152;-74
2021/03/06 00:55:12;;;;;;;2.87;1.70;;;;;;;1.29;65.74;97443.45;1730312;81;21257;-74
2021/03/06 00:57:40;;;;;;;3.12;1.98;;;;;;;1.28;65.64;97449.11;1746714;81;21195;-74
2021/03/06 01:00:13;;;;;;;3.15;2.00;;;;;;;1.26;65.48;97458.70;1764486;81;21109;-73
2021/03/06 01:02:40;;;;;;;2.95;1.77;;;;;;;1.24;65.42;97467.86;1777637;81;21266;-73
2021/03/06 01:05:10;;;;;;;4.05;1.98;;;;;;;1.23;64.79;97465.30;1777196;81;21729;-73
2021/03/06 01:07:39;;;;;;;3.62;1.85;;;;;;;1.22;64.86;97466.20;1717902;84;21140;-73
2021/03/06 01:10:12;;;;;;;2.10;1.40;;;;;;;1.17;64.79;97462.47;1718418;83;21282;-73
2021/03/06 01:12:40;;;;;;;2.85;1.75;;;;;;;1.16;64.94;97455.58;1737308;81;21101;-72
2021/03/06 01:15:08;;;;;;;2.55;1.47;;;;;;;1.12;64.66;97456.62;1747670;82;21207;-73
2021/03/06 01:17:35;;;;;;;2.70;1.62;;;;;;;1.09;64.57;97454.98;1747635;82;21132;-73
2021/03/06 01:20:06;;;;;;;3.62;2.20;;;;;;;1.08;64.68;97446.80;1749420;81;21085;-74
2021/03/06 01:22:34;;;;;;;2.67;2.05;;;;;;;1.09;64.69;97438.55;1760916;81;21144;-74
2021/03/06 01:25:01;;;;;;;3.80;1.55;;;;;;;1.08;64.71;97448.09;1769292;80;21116;-74
2021/03/06 01:27:29;;;;;;;3.10;2.00;;;;;;;1.08;64.20;97458.91;1781382;78;21134;-74
2021/03/06 01:29:56;;;;;;;2.27;1.62;;;;;;;1.12;64.19;97468.30;1806449;79;21245;-73
2021/03/06 01:32:25;;;;;;;2.45;1.70;;;;;;;1.14;64.33;97483.81;1806144;79;21495;-72
2021/03/06 01:34:53;;;;;;;3.55;1.80;;;;;;;1.14;63.26;97485.98;1784725;79;21261;-72
2021/03/06 01:37:20;;;;;;;3.05;2.05;;;;;;;1.11;63.76;97491.27;1774055;80;21132;-74
2021/03/06 01:39:48;;;;;;;3.52;1.80;;;;;;;1.11;63.95;97493.87;1774012;81;21301;-74
2021/03/06 01:42:19;;;;;;;3.92;1.77;;;;;;;1.12;64.05;97502.05;1774420;79;21300;-74
2021/03/06 01:44:46;;;;;;;3.10;1.82;;;;;;;1.12;63.92;97516.34;1782987;79;21098;-74
2021/03/06 01:47:14;;;;;;;3.67;2.20;;;;;;;1.07;63.39;97521.70;1782029;79;21223;-74
2021/03/06 01:49:46;;;;;;;3.65;1.80;;;;;;;1.01;62.22;97527.55;1774946;80;21131;-74
2021/03/06 01:52:15;;;;;;;3.80;1.95;;;;;;;0.94;62.50;97533.39;1781181;79;21130;-73
2021/03/06 01:54:51;;;;;;;3.67;1.70;;;;;;;0.92;62.71;97538.65;1805333;79;21721;-75
2021/03/06 01:57:18;;;;;;;3.72;1.90;;;;;;;0.86;62.11;97525.02;1790525;79;21254;-73
2021/03/06 01:59:46;;;;;;;4.53;2.10;;;;;;;0.81;62.71;97532.97;1774954;79;21309;-74
2021/03/06 02:02:14;;;;;;;3.90;2.62;;;;;;;0.75;62.47;97537.91;1774482;81;21146;-74
2021/03/06 02:04:41;;;;;;;3.30;1.82;;;;;;;0.73;62.93;97528.06;1775007;79;21139;-73
2021/03/06 02:07:09;;;;;;;4.35;2.12;;;;;;;0.72;62.91;97534.14;1775481;79;21159;-73
2021/03/06 02:09:38;;;;;;;4.78;2.15;;;;;;;0.69;62.48;97533.41;1782298;79;21264;-74
2021/03/06 02:12:33;;;;;;;2.95;1.80;;;;;;;0.66;62.85;97532.20;1795839;79;21095;-73
2021/03/06 02:15:49;;;;;;;3.33;2.15;;;;;;;0.68;62.18;97539.48;1826708;77;24761;-75
2021/03/06 02:18:44;;;;;;;3.75;2.10;;;;;;;0.61;62.44;97544.86;1711561;84;21170;-73
2021/03/06 02:21:38;;;;;;;6.75;2.30;;;;;;;0.59;62.30;97549.71;1711309;84;21588;-74
2021/03/06 02:27:34;;;;;;;4.37;2.17;;;;;;;0.58;62.38;97556.66;1629630;87;21312;-73
2021/03/06 02:30:08;;;;;;;5.47;2.10;;;;;;;0.59;62.56;97560.95;1636319;86;21189;-74
2021/03/06 02:32:45;;;;;;;4.97;2.42;;;;;;;0.60;62.02;97559.19;1652373;87;21633;-73
2021/03/06 02:35:18;;;;;;;5.50;2.45;;;;;;;0.61;62.07;97554.41;1647690;86;21184;-74
2021/03/06 02:38:02;;;;;;;3.65;2.20;;;;;;;0.62;62.00;97571.21;1694890;84;21581;-74
2021/03/06 02:40:34;;;;;;;5.22;2.52;;;;;;;0.59;61.72;97565.28;1654501;86;21598;-74
2021/03/06 02:43:03;;;;;;;6.60;2.60;;;;;;;0.58;61.61;97575.25;1652111;86;21125;-72
2021/03/06 02:45:33;;;;;;;3.60;2.87;;;;;;;0.59;61.59;97573.06;1651600;87;21159;-74
2021/03/06 02:48:02;;;;;;;3.05;2.20;;;;;;;0.55;61.19;97576.67;1685323;85;21164;-73
2021/03/06 02:50:30;;;;;;;3.87;2.22;;;;;;;0.54;61.53;97589.23;1688878;85;21195;-75
2021/03/06 02:52:58;;;;;;;4.55;2.17;;;;;;;0.56;61.37;97596.06;1666768;82;21157;-72
2021/03/06 02:55:27;;;;;;;4.20;2.10;;;;;;;0.59;61.18;97610.25;1802743;79;21255;-73
2021/03/06 02:58:43;;;;;;;4.35;2.40;;;;;;;0.58;61.12;97608.55;1803454;79;21259;-72
2021/03/06 03:01:28;;;;;;;8.33;2.62;;;;;;;0.61;61.57;97607.59;1769571;79;21739;-73
2021/03/06 03:04:05;;;;;;;2.87;1.98;;;;;;;0.61;61.47;97612.78;1797079;79;21096;-72
2021/03/06 03:06:38;;;;;;;3.90;2.52;;;;;;;0.66;61.46;97621.25;1754739;81;21593;-73
2021/03/06 03:09:22;;;;;;;6.47;2.20;;;;;;;0.67;60.53;97622.95;1784456;79;21105;-72
2021/03/06 03:12:08;;;;;;;4.97;2.47;;;;;;;0.69;60.84;97632.02;1802058;79;21137;-74
2021/03/06 03:15:07;;;;;;;8.18;2.75;;;;;;;0.65;60.70;97632.53;1801637;79;21144;-73
2021/03/06 03:17:49;;;;;;;5.05;2.10;;;;;;;0.68;60.71;97640.23;1801124;79;21144;-74
2021/03/06 03:20:36;;;;;;;4.35;2.50;;;;;;;0.68;60.19;97629.84;1800681;79;21570;-73
2021/03/06 03:23:19;;;;;;;5.12;2.83;;;;;;;0.68;60.13;97634.20;1802070;80;21132;-72
2021/03/06 03:25:51;;;;;;;4.42;2.60;;;;;;;0.65;59.99;97632.99;1799260;79;21244;-74
2021/03/06 03:28:21;;;;;;;2.30;1.50;;;;;;;0.58;58.84;97638.39;1792413;79;21148;-74
2021/03/06 03:30:51;;;;;;;6.10;3.08;;;;;;;0.55;59.90;97644.13;1795455;79;21116;-75
2021/03/06 03:33:20;;;;;;;4.80;2.67;;;;;;;0.49;59.80;97649.05;1781407;80;21156;-77
2021/03/06 03:35:49;;;;;;;6.05;3.12;;;;;;;0.46;60.06;97654.32;1800904;79;21279;-73
2021/03/06 03:38:18;;;;;;;6.47;3.00;;;;;;;0.48;59.60;97668.09;1800510;79;21124;-73
2021/03/06 03:40:46;;;;;;;7.17;3.37;;;;;;;0.48;60.04;97665.51;1800549;80;21124;-73
2021/03/06 03:43:16;;;;;;;5.62;3.12;;;;;;;0.48;60.14;97668.09;1807097;79;21120;-73
2021/03/06 03:45:43;;;;;;;6.25;2.62;;;;;;;0.46;59.26;97669.89;1809480;79;21234;-73
2021/03/06 03:48:11;;;;;;;6.80;3.17;;;;;;;0.44;59.76;97676.42;1809471;79;22479;-72
2021/03/06 03:50:38;;;;;;;6.92;3.00;;;;;;;0.45;59.62;97681.16;1805689;79;21259;-72
2021/03/06 03:53:06;;;;;;;5.42;2.95;;;;;;;0.45;59.80;97688.94;1802141;79;21167;-73
2021/03/06 03:55:34;;;;;;;5.00;2.30;;;;;;;0.45;59.49;97691.09;1801032;80;21318;-74
2021/03/06 03:58:02;;;;;;;6.10;3.58;;;;;;;0.44;59.67;97690.69;1801633;79;21262;-74
2021/03/06 04:00:30;;;;;;;5.22;2.70;;;;;;;0.43;59.86;97690.29;1808201;79;21545;-73
2021/03/06 04:03:07;;;;;;;5.40;3.02;;;;;;;0.43;59.85;97704.55;1809367;79;21156;-74
2021/03/06 04:05:35;;;;;;;6.95;2.90;;;;;;;0.40;59.62;97698.61;1809399;79;21128;-74
2021/03/06 04:08:04;;;;;;;6.85;2.87;;;;;;;0.39;59.81;97698.20;1808754;79;21183;-72
2021/03/06 04:10:31;;;;;;;5.80;3.00;;;;;;;0.38;59.99;97696.50;1807570;79;21143;-74
2021/03/06 04:12:59;;;;;;;7.03;3.15;;;;;;;0.35;59.95;97694.86;1808741;79;21164;-73
2021/03/06 04:15:26;;;;;;;9.65;3.37;;;;;;;0.34;59.83;97706.13;1798325;79;21297;-72
2021/03/06 04:17:54;;;;;;;6.70;3.87;;;;;;;0.30;59.69;97707.09;1797612;79;21283;-73
2021/03/06 04:20:23;;;;;;;7.70;3.00;;;;;;;0.26;59.53;97710.23;1798934;79;21101;-72
2021/03/06 04:22:50;;;;;;;6.83;2.52;;;;;;;0.26;59.73;97711.52;1791558;79;21124;-74
2021/03/06 04:25:17;;;;;;;5.97;2.80;;;;;;;0.26;59.88;97711.52;1762267;81;21129;-72
2021/03/06 04:27:45;;;;;;;6.42;3.08;;;;;;;0.24;59.94;97724.14;1776645;79;21077;-74
2021/03/06 04:30:34;;;;;;;4.55;2.92;;;;;;;0.20;59.81;97732.88;1804739;79;21065;-75
2021/03/06 04:33:02;;;;;;;7.00;3.45;;;;;;;0.18;58.91;97745.91;1786909;79;21267;-73
2021/03/06 04:35:30;;;;;;;8.27;3.40;;;;;;;0.16;59.58;97754.16;1792180;79;21137;-73
2021/03/06 04:37:58;;;;;;;8.55;2.47;;;;;;;0.09;59.04;97758.66;1790367;80;21270;-73
2021/03/06 04:40:26;;;;;;;6.07;3.50;;;;;;;0.06;59.41;97763.95;1788159;80;21278;-75
2021/03/06 04:42:53;;;;;;;8.03;2.90;;;;;;;0.04;59.67;97763.59;1782568;80;21667;-73
2021/03/06 04:45:22;;;;;;;8.00;3.00;;;;;;;0.04;59.73;97768.78;1777238;81;21136;-73
2021/03/06 04:47:49;;;;;;;7.17;3.60;;;;;;;0.01;59.49;97777.92;1776800;80;21120;-73
2021/03/06 04:50:18;;;;;;;6.63;3.30;;;;;;;-0.02;59.74;97784.05;1753947;81;21676;-74
2021/03/06 04:52:45;;;;;;;5.83;3.00;;;;;;;-0.07;59.31;97786.77;1776536;80;21135;-72
2021/03/06 04:55:12;;;;;;;4.53;2.80;;;;;;;-0.10;59.47;97793.77;1802582;79;21136;-74
2021/03/06 04:57:39;;;;;;;10.50;3.63;;;;;;;-0.11;59.67;97801.97;1801285;79;21321;-73
2021/03/06 05:00:10;;;;;;;6.40;3.40;;;;;;;-0.11;59.58;97793.36;1792611;79;21090;-73
2021/03/06 05:02:40;;;;;;;6.63;2.67;;;;;;;-0.10;59.69;97797.20;1795386;80;21149;-73
2021/03/06 05:05:08;;;;;;;7.23;3.10;;;;;;;-0.11;59.38;97801.14;1776471;80;21117;-74
2021/03/06 05:07:36;;;;;;;7.25;3.08;;;;;;;-0.14;59.49;97808.98;1798121;79;21251;-74
2021/03/06 05:10:07;;;;;;;9.97;3.23;;;;;;;-0.14;59.42;97805.09;1797644;79;21137;-73
2021/03/06 05:12:35;;;;;;;6.87;3.12;;;;;;;-0.12;59.74;97801.56;1798924;79;21267;-74
2021/03/06 05:15:05;;;;;;;5.97;3.50;;;;;;;-0.14;59.49;97799.91;1804878;79;21116;-73
2021/03/06 05:17:33;;;;;;;8.78;3.60;;;;;;;-0.16;59.33;97798.66;1806927;79;21135;-75
2021/03/06 05:20:02;;;;;;;5.87;2.73;;;;;;;-0.10;59.44;97799.80;1799213;79;21125;-73
2021/03/06 05:22:29;;;;;;;6.17;2.87;;;;;;;-0.08;59.42;97800.61;1800704;79;21137;-73
2021/03/06 05:28:47;;;;;;;5.90;2.98;;;;;;;-0.03;58.88;97818.17;1814629;79;24750;-74
2021/03/06 05:31:14;;;;;;;6.83;2.80;;;;;;;-0.05;59.02;97808.74;1763373;81;21289;-74
2021/03/06 05:33:42;;;;;;;7.27;3.10;;;;;;;-0.04;58.78;97816.47;1764038;80;21564;-73
2021/03/06 05:36:09;;;;;;;7.73;3.03;;;;;;;-0.02;59.13;97822.93;1763635;80;21108;-74
2021/03/06 05:38:36;;;;;;;6.33;3.00;;;;;;;-0.02;58.89;97824.22;1763966;81;21158;-73
2021/03/06 05:41:04;;;;;;;4.97;3.20;;;;;;;0.02;58.69;97821.10;1747151;80;21258;-74
2021/03/06 05:43:33;;;;;;;5.77;2.77;;;;;;;0.07;59.04;97823.11;1795086;80;21293;-74
2021/03/06 05:46:01;;;;;;;7.20;3.00;;;;;;;0.12;58.78;97830.34;1795111;80;21265;-74
2021/03/06 05:49:07;;;;;;;5.67;3.10;;;;;;;0.14;58.09;97842.80;1795007;80;21128;-75
2021/03/06 05:52:13;;;;;;;7.22;3.42;;;;;;;0.21;58.03;97854.73;1780768;79;24160;-73
2021/03/06 05:54:41;;;;;;;5.63;2.90;;;;;;;0.17;57.90;97865.23;1724898;83;21128;-74
2021/03/06 05:57:08;;;;;;;6.85;3.45;;;;;;;0.14;58.14;97866.13;1754219;82;21132;-73
2021/03/06 05:59:36;;;;;;;5.60;3.10;;;;;;;0.16;57.92;97872.14;1754658;82;21124;-73
2021/03/06 06:02:04;;;;;;;7.93;3.57;;;;;;;0.10;58.35;97880.08;1728468;82;21286;-73
2021/03/06 06:04:35;;;;;;;9.73;3.83;;;;;;;0.10;58.42;97882.67;1725606;83;21148;-72
2021/03/06 06:07:03;;;;;;;6.03;3.10;;;;;;;0.13;58.41;97887.80;1717751;83;21140;-74
2021/03/06 06:09:30;;;;;;;5.30;2.90;;;;;;;0.15;58.54;97898.95;1723904;83;21204;-75
2021/03/06 06:11:57;;;;;;;6.90;3.07;;;;;;;0.18;58.47;97895.45;1724099;83;21189;-74
2021/03/06 06:14:27;;;;;;;8.80;3.77;;;;;;;0.20;58.20;97900.13;1722237;83;21156;-73
2021/03/06 06:16:54;;;;;;;5.33;2.63;;;;;;;0.20;57.94;97906.19;1714985;82;21143;-73
2021/03/06 06:19:23;;;;;;;9.03;3.37;;;;;;;0.13;57.35;97911.13;1724250;83;21159;-74
2021/03/06 06:21:51;;;;;;;4.80;2.35;;;;;;;0.01;57.92;97910.13;1724200;82;22255;-74
2021/03/06 06:24:22;;;;;;;6.53;3.73;;;;;;;0.01;58.34;97925.69;1724596;83;21188;-73
2021/03/06 06:27:07;;;;;;;5.90;3.00;;;;;;;-0.07;58.19;97925.43;1721929;83;21089;-74
2021/03/06 06:29:42;;;;;;;6.28;3.25;;;;;;;-0.10;57.90;97928.09;1708463;83;21301;-73
2021/03/06 06:32:16;;;;;;;6.13;3.70;;;;;;;-0.10;58.56;97937.62;1681702;84;21140;-73
2021/03/06 06:35:07;;;;;;;2.95;1.95;;;;;;;-0.11;58.33;97939.34;1682267;84;21160;-72
2021/03/06 06:37:38;;;;;;;6.23;3.10;;;;;;;-0.13;58.23;97938.52;1682185;84;21597;-74
2021/03/06 06:43:41;;;;;;;9.27;2.93;;;;;;;-0.10;58.45;97942.34;1651986;85;21677;-73
2021/03/06 06:46:13;;;;;;;8.13;2.63;;;;;;;-0.10;57.99;97945.39;1637388;87;21307;-73
2021/03/06 06:48:58;;;;;;;9.90;5.00;;;;;;;-0.09;58.11;97957.47;1638690;87;21247;-74
2021/03/06 06:51:26;;;;;;;7.27;3.10;;;;;;;-0.14;57.48;97954.11;1632204;87;21201;-73
2021/03/06 06:54:13;;;;;;;6.77;2.60;;;;;;;-0.25;57.79;97956.50;1638651;87;21689;-72
2021/03/06 06:56:41;;;;;;;6.33;2.97;;;;;;;-0.29;57.48;97951.00;1623318;88;21198;-75
2021/03/06 06:59:09;;;;;;;5.20;2.97;;;;;;;-0.29;58.17;97959.20;1639005;87;21181;-74
2021/03/06 07:01:39;;;;;;;10.43;4.23;;;;;;;-0.27;57.85;97968.64;1617290;88;21200;-73
2021/03/06 07:04:11;;;;;;;7.30;3.43;;;;;;;-0.21;58.66;97972.41;1644143;86;21281;-75
2021/03/06 07:06:40;;;;;;;4.43;2.70;;;;;;;0.18;59.28;97980.56;1582468;91;21199;-75
2021/03/06 07:09:13;;;;;;;8.13;4.43;;;;;;;0.75;58.32;97969.19;1641485;87;21171;-75
2021/03/06 07:11:52;;;;;;;9.13;3.52;;;;;;;1.40;56.57;97973.42;1825586;77;24450;-75
2021/03/06 07:14:37;;;;;;;9.00;3.65;;;;;;;1.80;56.35;97977.03;1800751;78;21168;-74
2021/03/06 07:17:04;;;;;;;9.18;3.30;;;;;;;2.33;55.48;97981.44;1798394;80;21150;-73
2021/03/06 07:19:36;;;;;;;5.53;3.58;;;;;;;2.71;54.60;97984.94;1811919;78;21565;-72
2021/03/06 07:22:04;;;;;;;5.97;3.47;;;;;;;3.10;51.48;97977.51;1769497;80;21114;-74
2021/03/06 07:24:31;;;;;;;7.22;3.33;;;;;;;3.31;52.32;97982.81;1733270;81;21153;-75
2021/03/06 07:26:59;;;;;;;10.05;3.92;;;;;;;3.80;51.61;97993.62;1771448;81;21152;-74
2021/03/06 07:29:29;;;;;;;9.68;3.47;;;;;;;4.15;49.43;97996.16;1769775;81;21166;-74
2021/03/06 07:31:58;;;;;;;6.37;3.35;;;;;;;4.36;49.73;98003.58;1741404;82;21124;-75
2021/03/06 07:34:29;;;;;;;4.72;2.37;;;;;;;4.59;46.66;98002.23;1742519;82;21274;-76
2021/03/06 07:37:04;;;;;;;5.85;3.05;;;;;;;4.74;45.48;98005.97;1741918;82;21150;-75
2021/03/06 07:39:42;;;;;;;5.20;2.80;;;;;;;4.81;47.65;98017.41;1741556;82;21139;-75
2021/03/06 07:42:39;;;;;;;4.65;2.80;;;;;;;4.57;44.41;98020.59;1741720;82;21282;-75
2021/03/06 07:45:09;;;;;;;5.85;2.90;;;;;;;4.73;47.21;98025.16;1742060;81;21281;-75
2021/03/06 07:47:40;;;;;;;7.35;2.83;;;;;;;5.02;46.77;98021.78;1714659;82;21142;-75
2021/03/06 07:50:16;;;;;;;7.00;2.50;;;;;;;5.33;47.10;98030.44;1741504;82;21577;-75
2021/03/06 07:52:44;;;;;;;7.80;2.95;;;;;;;5.46;44.96;98025.06;1758121;81;21289;-75
2021/03/06 07:55:14;;;;;;;4.60;2.80;;;;;;;5.48;44.08;98022.38;1772088;81;21644;-73
2021/03/06 07:58:17;;;;;;;7.12;2.58;;;;;;;5.53;44.09;98033.46;1771985;81;21293;-74
2021/03/06 08:00:58;;;;;;;5.03;2.62;;;;;;;5.57;43.74;98037.66;1755816;81;21687;-74
2021/03/06 08:06:33;;;;;;;4.47;2.75;;;;;;;5.65;41.98;98040.38;1714570;83;21155;-75
2021/03/06 08:09:10;;;;;;;5.58;2.70;;;;;;;5.70;44.06;98033.19;1763367;80;21140;-73
2021/03/06 08:11:44;;;;;;;7.80;3.83;;;;;;;5.62;43.15;98051.36;1769951;80;21176;-76
2021/03/06 08:14:31;;;;;;;6.85;2.87;;;;;;;5.59;43.44;98049.34;1774743;79;21243;-75
2021/03/06 08:20:24;;;;;;;6.00;3.08;;;;;;;5.77;43.10;98049.81;1772419;81;20176;-74
2021/03/06 08:26:30;;;;;;;5.40;3.35;;;;;;;5.72;41.51;98065.33;1742871;81;21184;-75
2021/03/06 08:35:32;;;;;;;10.43;3.67;;;;;;;5.57;42.86;98069.48;1781272;79;24157;-74
2021/03/06 08:38:00;;;;;;;6.70;3.47;;;;;;;5.37;41.24;98072.54;1755689;82;21121;-76
2021/03/06 08:40:30;;;;;;;7.55;3.27;;;;;;;5.23;42.99;98073.14;1755088;82;21262;-74
2021/03/06 08:42:57;;;;;;;7.22;3.75;;;;;;;5.37;42.18;98075.59;1755702;81;21124;-75
2021/03/06 08:45:30;;;;;;;6.22;3.05;;;;;;;5.42;41.13;98082.33;1756585;82;21140;-76
2021/03/06 08:48:04;;;;;;;5.25;2.92;;;;;;;5.58;42.59;98082.95;1754617;81;21172;-76
2021/03/06 08:50:35;;;;;;;6.30;3.00;;;;;;;5.57;39.26;98076.02;1756048;82;21518;-74
2021/03/06 08:53:10;;;;;;;6.22;3.25;;;;;;;5.74;41.85;98088.36;1755846;81;21124;-74
2021/03/06 08:55:43;;;;;;;6.42;3.35;;;;;;;5.92;41.71;98094.06;1742966;82;21261;-76
2021/03/06 08:58:17;;;;;;;6.95;3.30;;;;;;;6.17;42.25;98090.34;1755511;82;21097;-74
2021/03/06 09:01:22;;;;;;;7.22;3.40;;;;;;;6.08;40.76;98092.08;1742357;81;21160;-75
2021/03/06 09:03:50;;;;;;;8.65;3.58;;;;;;;5.80;40.12;98094.61;1696356;85;21143;-74
2021/03/06 09:06:17;;;;;;;9.55;4.03;;;;;;;5.47;41.02;98100.43;1696058;85;21290;-74
2021/03/06 09:08:54;;;;;;;5.30;2.60;;;;;;;5.26;42.08;98105.66;1712289;81;21167;-75
2021/03/06 09:11:24;;;;;;;5.87;3.50;;;;;;;5.05;42.12;98094.36;1723540;82;21589;-75
2021/03/06 09:18:12;;;;;;;5.25;2.58;;;;;;;4.98;42.05;98106.83;1698843;84;21156;-75
2021/03/06 09:20:48;;;;;;;4.47;2.77;;;;;;;4.88;42.12;98104.19;1696253;85;21348;-75
2021/03/06 09:23:37;;;;;;;;;;;;;;;4.69;41.20;98099.72;1700186;83;21594;-75
2021/03/06 09:26:18;;;;;;;8.80;4.28;;;;;;;4.66;40.69;98110.75;1712303;83;20438;-74
2021/03/06 09:28:54;;;;;;;5.65;3.05;;;;;;;4.58;41.99;98122.83;1699689;84;21317;-75
2021/03/06 09:31:34;;;;;;;4.83;3.10;;;;;;;4.37;41.18;98125.80;1702921;83;21302;-74
2021/03/06 09:37:35;;;;;;;6.25;3.40;;;;;;;4.72;42.28;98121.41;1854032;77;24561;-74
2021/03/06 09:40:23;;;;;;;6.00;2.80;;;;;;;4.76;40.39;98117.77;1830065;78;21249;-73
2021/03/06 09:42:54;;;;;;;3.90;2.52;;;;;;;4.76;42.09;98125.14;1830229;78;21252;-75
2021/03/06 09:45:25;;;;;;;6.50;2.98;;;;;;;4.51;39.97;98121.34;1827485;78;21752;-75
2021/03/06 09:48:03;;;;;;;6.25;2.80;;;;;;;4.07;40.42;98123.47;1796852;80;21140;-76
2021/03/06 09:50:32;;;;;;;5.70;2.92;;;;;;;3.89;41.39;98124.99;1797127;80;21149;-74
2021/03/06 09:53:21;;;;;;;5.70;3.42;;;;;;;3.89;41.95;98129.77;1779492;78;21160;-74
2021/03/06 09:56:11;;;;;;;6.85;3.10;;;;;;;3.87;41.79;98126.80;1827919;78;21165;-75
2021/03/06 09:58:41;;;;;;;10.35;3.27;;;;;;;3.95;41.87;98130.44;1829600;78;21082;-74
2021/03/06 10:01:21;;;;;;;5.20;2.85;;;;;;;4.23;40.46;98141.98;1807970;78;21199;-75
2021/03/06 10:03:50;;;;;;;3.72;2.58;;;;;;;4.28;40.55;98144.42;1796452;80;21167;-75
2021/03/06 10:06:22;;;;;;;3.67;2.42;;;;;;;4.32;40.07;98137.72;1796565;80;21102;-74
2021/03/06 10:08:58;;;;;;;4.80;2.55;;;;;;;4.42;39.16;98142.16;1760602;80;21110;-75
2021/03/06 10:17:50;;;;;;;6.70;2.87;;;;;;;4.98;38.10;98150.41;1654913;86;21232;-74
2021/03/06 10:20:29;;;;;;;4.08;2.45;;;;;;;4.97;38.95;98139.09;1654908;87;21200;-76
2021/03/06 10:22:56;;;;;;;2.92;2.00;;;;;;;5.03;36.36;98140.61;1655051;84;21171;-73
2021/03/06 10:25:28;;;;;;;5.20;2.47;;;;;;;4.89;35.09;98145.55;1642978;86;21183;-76
2021/03/06 10:28:00;;;;;;;6.45;2.98;;;;;;;4.91;38.39;98144.58;1663113;86;21270;-74
2021/03/06 10:30:30;;;;;;;6.67;2.65;;;;;;;5.10;37.57;98146.44;1653513;87;21213;-75
2021/03/06 10:33:01;;;;;;;5.22;2.33;;;;;;;5.18;37.43;98161.34;1654580;83;21216;-76
2021/03/06 10:35:49;;;;;;;6.75;2.65;;;;;;;5.23;36.00;98157.23;1655297;86;21211;-75
2021/03/06 10:38:41;;;;;;;4.90;2.90;;;;;;;5.19;37.14;98153.90;1660495;84;21227;-73
2021/03/06 10:41:16;;;;;;;4.55;2.50;;;;;;;5.21;36.28;98170.38;1643006;86;21224;-75
2021/03/06 10:43:58;;;;;;;5.08;2.70;;;;;;;5.16;36.67;98161.42;1928799;74;22910;-75
2021/03/06 10:46:34;;;;;;;4.62;3.05;;;;;;;5.17;36.30;98166.17;1825361;79;21147;-74
2021/03/06 10:49:08;;;;;;;6.75;2.33;;;;;;;5.22;38.01;98166.85;1859212;77;21552;-74
2021/03/06 10:51:57;;;;;;;4.60;2.70;;;;;;;5.21;36.72;98174.73;1825013;78;21278;-75
2021/03/06 10:54:24;;;;;;;5.37;2.83;;;;;;;5.14;36.26;98166.32;1809065;78;21566;-74
2021/03/06 10:57:06;;;;;;;5.12;2.85;;;;;;;5.00;36.23;98160.35;1828112;77;21120;-74
2021/03/06 10:59:36;;;;;;;5.40;2.80;;;;;;;5.06;36.33;98150.11;1826985;79;21285;-75
2021/03/06 11:02:04;;;;;;;4.95;2.70;;;;;;;5.02;35.73;98149.83;1800082;78;21291;-75
2021/03/06 11:04:35;;;;;;;5.28;3.27;;;;;;;5.05;36.95;98149.70;1796421;80;21278;-75
2021/03/06 11:07:08;;;;;;;4.30;2.58;;;;;;;5.08;36.02;98146.95;1797135;80;21656;-74
2021/03/06 11:09:39;;;;;;;4.53;2.52;;;;;;;5.14;33.97;98137.57;1795592;80;21135;-74
2021/03/06 11:12:21;;;;;;;4.92;3.12;;;;;;;5.07;35.40;98134.35;1825285;78;21239;-75
2021/03/06 11:15:13;;;;;;;4.03;2.33;;;;;;;5.14;35.60;98134.48;1824726;78;21238;-78
2021/03/06 11:17:47;;;;;;;4.50;2.37;;;;;;;5.20;35.48;98147.76;1827818;77;21114;-75
2021/03/06 11:20:18;;;;;;;4.87;2.27;;;;;;;5.13;32.87;98139.31;1824880;79;21140;-73
2021/03/06 11:22:46;;;;;;;3.85;2.10;;;;;;;5.05;34.66;98136.17;1824660;78;21577;-73
2021/03/06 11:25:16;;;;;;;6.72;3.35;;;;;;;5.07;34.18;98133.48;1820723;78;21258;-73
2021/03/06 11:27:49;;;;;;;4.95;2.37;;;;;;;5.16;35.02;98137.02;1807196;79;21108;-73
2021/03/06 11:30:24;;;;;;;4.20;2.22;;;;;;;5.29;35.11;98128.23;1821551;78;21172;-77
2021/03/06 11:32:55;;;;;;;5.33;2.15;;;;;;;5.42;36.00;98127.25;1801181;79;21726;-73
2021/03/06 11:35:25;;;;;;;4.05;2.35;;;;;;;5.56;35.35;98130.11;1799869;80;21289;-72
2021/03/06 11:37:54;;;;;;;5.45;2.25;;;;;;;5.61;31.68;98128.59;1800719;80;21147;-74
2021/03/06 11:40:26;;;;;;;3.33;2.00;;;;;;;5.55;31.29;98134.11;1801421;79;21147;-72
2021/03/06 11:42:54;;;;;;;3.72;2.02;;;;;;;5.54;34.20;98128.48;1794851;80;21198;-73
2021/03/06 11:45:22;;;;;;;5.00;1.98;;;;;;;5.37;31.92;98135.30;1788383;80;21120;-74
2021/03/06 11:47:55;;;;;;;6.78;2.20;;;;;;;5.03;31.34;98142.38;1787547;80;21149;-75
2021/03/06 11:50:30;;;;;;;2.95;1.90;;;;;;;4.69;34.35;98140.20;1792306;80;21155;-74
2021/03/06 11:52:59;;;;;;;6.20;2.10;;;;;;;4.69;33.48;98134.98;1793981;80;21277;-75
2021/03/06 11:55:28;;;;;;;4.22;2.22;;;;;;;4.80;34.21;98131.95;1793199;80;21148;-75
2021/03/06 11:57:55;;;;;;;3.83;2.40;;;;;;;4.84;34.32;98133.52;1793684;80;21257;-76
2021/03/06 12:00:25;;;;;;;3.40;1.90;;;;;;;4.83;33.81;98130.50;1789483;80;21140;-77
2021/03/06 12:02:55;;;;;;;3.25;2.17;;;;;;;4.74;32.36;98136.57;1790015;80;21274;-74
2021/03/06 12:08:46;;;;;;;4.08;2.05;;;;;;;4.46;33.67;98142.41;1761222;81;21754;-76
2021/03/06 12:11:14;;;;;;;4.72;2.08;;;;;;;4.49;32.93;98146.69;1761653;81;21175;-78
2021/03/06 12:13:41;;;;;;;3.33;1.70;;;;;;;4.73;34.01;98147.92;1761241;81;21500;-74
2021/03/06 12:16:08;;;;;;;2.87;1.75;;;;;;;4.95;34.22;98128.31;1786160;80;21265;-72
2021/03/06 12:18:36;;;;;;;3.35;1.92;;;;;;;5.02;32.56;98137.59;1792477;80;21163;-73
2021/03/06 12:21:04;;;;;;;5.42;2.00;;;;;;;4.92;31.80;98146.28;1792139;80;21612;-76
2021/03/06 12:23:31;;;;;;;4.20;1.65;;;;;;;4.73;30.53;98140.09;1790390;80;21339;-75
2021/03/06 12:25:59;;;;;;;4.30;2.10;;;;;;;4.52;31.63;98146.11;1792169;80;21503;-72
2021/03/06 12:28:26;;;;;;;3.65;1.98;;;;;;;4.44;32.12;98145.56;1791013;80;21161;-73
2021/03/06 12:30:54;;;;;;;3.58;1.92;;;;;;;4.30;29.68;98142.61;1766828;80;21164;-72
2021/03/06 12:33:21;;;;;;;2.90;1.70;;;;;;;4.16;30.72;98151.83;1790538;80;21175;-75
2021/03/06 12:35:49;;;;;;;2.90;1.77;;;;;;;4.08;29.27;98150.41;1789986;80;21108;-76
2021/03/06 12:38:16;;;;;;;5.50;2.10;;;;;;;4.13;32.92;98161.53;1772021;80;21183;-74
2021/03/06 12:40:43;;;;;;;2.35;1.82;;;;;;;4.26;31.40;98146.27;1758572;81;21159;-76
2021/03/06 12:43:12;;;;;;;3.77;1.60;;;;;;;4.48;30.74;98143.67;1768299;80;21206;-74
2021/03/06 12:45:54;;;;;;;2.67;1.70;;;;;;;4.78;30.63;98144.22;1817467;79;21188;-75
2021/03/06 12:48:23;;;;;;;3.37;1.70;;;;;;;4.28;29.50;98029.58;1782234;79;21162;-74
2021/03/06 12:50:51;;;;;;;4.72;1.95;;;;;;;5.04;30.41;98137.55;1776947;81;21183;-75